createdAt,value
2023-02-12T00:00:57.363Z,59.88
2023-02-12T00:03:17.082Z,55.47
2023-02-12T00:05:38.535Z,58.67
2023-02-12T00:07:58.166Z,59.33
2023-02-12T00:10:17.950Z,57.25
2023-02-12T00:12:37.589Z,60.88
2023-02-12T00:14:57.218Z,63.90
2023-02-12T00:17:16.829Z,58.30
2023-02-12T00:19:37.032Z,61.13
2023-02-12T00:21:57.207Z,52.85
2023-02-12T00:24:17.036Z,49.60
2023-02-12T00:26:37.439Z,47.75
2023-02-12T00:28:57.276Z,48.45
2023-02-12T00:31:23.687Z,57.90
2023-02-12T00:33:44.100Z,55.85
2023-02-12T00:36:05.032Z,59.20
2023-02-12T00:38:25.288Z,58.33
2023-02-12T00:40:45.184Z,58.25
2023-02-12T00:43:05.482Z,67.47
2023-02-12T00:45:25.590Z,73.03
2023-02-12T00:47:45.763Z,66.47
2023-02-12T00:50:06.068Z,58.35
2023-02-12T00:52:26.128Z,53.78
2023-02-12T00:54:46.227Z,56.65
2023-02-12T00:57:06.231Z,62.30
2023-02-12T00:59:26.442Z,57.28
2023-02-12T01:01:46.079Z,60.17
2023-02-12T01:04:06.189Z,59.38
2023-02-12T01:06:25.918Z,61.13
2023-02-12T01:08:45.956Z,57.10
2023-02-12T01:11:06.143Z,57.67
2023-02-12T01:13:27.054Z,59.92
2023-02-12T01:15:47.161Z,56.70
2023-02-12T01:18:07.605Z,58.42
2023-02-12T01:20:27.619Z,56.10
2023-02-12T01:22:47.840Z,57.53
2023-02-12T01:25:08.281Z,63.17
2023-02-12T01:27:28.202Z,56.20
2023-02-12T01:29:48.212Z,60.13
2023-02-12T01:32:08.110Z,58.50
2023-02-12T01:34:28.076Z,60.22
2023-02-12T01:36:47.664Z,64.07
2023-02-12T01:39:07.849Z,61.00
2023-02-12T01:41:36.500Z,77.68
2023-02-12T01:44:08.675Z,68.82
2023-02-12T01:46:28.546Z,65.22
2023-02-12T01:48:48.279Z,71.18
2023-02-12T01:51:14.327Z,76.70
2023-02-12T01:53:42.117Z,68.90
2023-02-12T01:56:02.883Z,68.35
2023-02-12T01:58:25.660Z,68.90
2023-02-12T02:00:45.579Z,62.75
2023-02-12T02:03:05.874Z,63.28
2023-02-12T02:05:41.157Z,61.92
2023-02-12T02:08:00.787Z,58.40
2023-02-12T02:10:20.398Z,59.80
2023-02-12T02:12:58.968Z,58.72
2023-02-12T02:15:19.159Z,53.15
2023-02-12T02:17:59.978Z,49.78
2023-02-12T02:20:39.179Z,52.08
2023-02-12T02:23:27.064Z,52.53
2023-02-12T02:26:21.280Z,48.50
2023-02-12T02:28:53.450Z,52.75
2023-02-12T02:31:31.705Z,53.05
2023-02-12T02:34:09.621Z,56.35
2023-02-12T02:37:01.698Z,51.75
2023-02-12T02:39:33.854Z,55.42
2023-02-12T02:41:58.743Z,53.70
2023-02-12T02:44:34.464Z,54.00
2023-02-12T02:46:57.131Z,58.15
2023-02-12T02:49:23.469Z,62.47
2023-02-12T02:51:47.288Z,65.65
2023-02-12T02:54:25.309Z,66.30
2023-02-12T02:56:48.314Z,65.72
2023-02-12T03:01:37.809Z,57.83
2023-02-12T03:04:12.091Z,57.22
2023-02-12T03:06:56.012Z,57.67
2023-02-12T03:09:25.432Z,56.70
2023-02-12T03:11:45.637Z,59.30
2023-02-12T03:14:18.499Z,60.72
2023-02-12T03:16:45.786Z,52.00
2023-02-12T03:19:10.453Z,54.22
2023-02-12T03:22:08.646Z,52.22
2023-02-12T03:24:42.397Z,57.15
2023-02-12T03:27:22.304Z,54.10
2023-02-12T03:29:42.058Z,58.15
2023-02-12T03:32:11.579Z,58.47
2023-02-12T03:35:15.939Z,63.30
2023-02-12T03:37:48.598Z,65.95
2023-02-12T03:40:21.190Z,60.92
2023-02-12T03:42:50.205Z,63.85
2023-02-12T03:45:26.378Z,63.70
2023-02-12T03:47:52.590Z,57.38
2023-02-12T03:50:15.630Z,58.15
2023-02-12T03:52:35.652Z,60.17
2023-02-12T03:54:55.996Z,62.72
2023-02-12T03:57:29.883Z,59.85
2023-02-12T03:59:50.650Z,56.67
2023-02-12T04:02:10.444Z,61.50
2023-02-12T04:04:31.212Z,57.88
2023-02-12T04:06:52.598Z,56.22
2023-02-12T04:09:13.269Z,53.50
2023-02-12T04:12:10.896Z,58.65
2023-02-12T04:14:49.669Z,53.05
2023-02-12T04:17:26.951Z,52.65
2023-02-12T04:20:02.098Z,55.38
2023-02-12T04:22:44.710Z,51.75
2023-02-12T04:25:17.090Z,51.83
2023-02-12T04:27:43.832Z,53.90
2023-02-12T04:30:23.513Z,54.88
2023-02-12T04:32:48.310Z,53.13
2023-02-12T04:35:34.329Z,54.15
2023-02-12T04:38:14.565Z,54.30
2023-02-12T04:40:35.288Z,62.45
2023-02-12T04:42:55.162Z,63.92
2023-02-12T04:45:25.128Z,56.22
2023-02-12T04:47:45.611Z,54.28
2023-02-12T04:50:06.614Z,54.70
2023-02-12T04:52:26.447Z,52.95
2023-02-12T04:54:46.061Z,54.00
2023-02-12T04:57:05.761Z,51.75
2023-02-12T04:59:25.493Z,55.15
2023-02-12T05:01:45.963Z,51.90
2023-02-12T05:04:07.955Z,56.20
2023-02-12T05:06:29.627Z,56.85
2023-02-12T05:08:49.264Z,58.65
2023-02-12T05:11:09.809Z,57.58
2023-02-12T05:13:29.766Z,50.83
2023-02-12T05:15:49.582Z,53.05
2023-02-12T05:18:09.703Z,57.00
2023-02-12T05:20:29.870Z,58.50
2023-02-12T05:22:53.423Z,53.38
2023-02-12T05:25:13.426Z,55.08
2023-02-12T05:27:33.578Z,52.90
2023-02-12T05:29:53.620Z,56.20
2023-02-12T05:32:14.679Z,53.97
2023-02-12T05:34:35.183Z,52.88
2023-02-12T05:36:54.976Z,52.47
2023-02-12T05:39:14.595Z,55.53
2023-02-12T05:41:35.042Z,56.85
2023-02-12T05:43:55.121Z,55.97
2023-02-12T05:46:15.784Z,59.08
2023-02-12T05:48:35.701Z,54.42
2023-02-12T05:51:05.454Z,57.15
2023-02-12T05:53:25.567Z,54.72
2023-02-12T05:55:46.053Z,59.25
2023-02-12T05:58:05.988Z,59.97
2023-02-12T06:00:25.824Z,57.72
2023-02-12T06:02:45.975Z,58.65
2023-02-12T06:05:06.249Z,57.47
2023-02-12T06:07:26.331Z,59.25
2023-02-12T06:09:46.169Z,60.13
2023-02-12T06:12:06.339Z,51.80
2023-02-12T06:14:26.503Z,56.22
2023-02-12T06:16:48.654Z,55.00
2023-02-12T06:19:09.575Z,49.77
2023-02-12T06:21:30.123Z,56.65
2023-02-12T06:23:51.647Z,61.58
2023-02-12T06:26:12.202Z,58.85
2023-02-12T06:28:32.163Z,57.17
2023-02-12T06:30:52.405Z,55.92
2023-02-12T06:33:12.477Z,56.28
2023-02-12T06:35:34.987Z,52.08
2023-02-12T06:37:54.723Z,56.42
2023-02-12T06:40:14.472Z,54.72
2023-02-12T06:42:34.523Z,49.17
2023-02-12T06:44:54.659Z,45.75
2023-02-12T06:47:14.301Z,51.22
2023-02-12T06:49:34.669Z,50.53
2023-02-12T06:51:54.813Z,50.63
2023-02-12T06:54:16.639Z,52.08
2023-02-12T06:56:37.728Z,50.67
2023-02-12T06:59:00.391Z,51.33
2023-02-12T07:01:23.637Z,51.72
2023-02-12T07:03:55.938Z,47.42
2023-02-12T07:06:18.903Z,48.28
2023-02-12T07:08:38.984Z,47.72
2023-02-12T07:10:59.220Z,50.47
2023-02-12T07:13:18.748Z,47.28
2023-02-12T07:15:39.887Z,48.38
2023-02-12T07:17:59.816Z,51.47
2023-02-12T07:20:19.604Z,49.65
2023-02-12T07:22:39.740Z,51.22
2023-02-12T07:24:59.786Z,49.72
2023-02-12T07:27:19.605Z,57.10
2023-02-12T07:29:39.830Z,57.92
2023-02-12T07:32:00.299Z,53.95
2023-02-12T07:34:20.318Z,53.65
2023-02-12T07:36:40.206Z,51.65
2023-02-12T07:39:00.963Z,55.90
2023-02-12T07:41:26.762Z,55.30
2023-02-12T07:43:49.037Z,50.83
2023-02-12T07:46:16.139Z,47.22
2023-02-12T07:48:36.056Z,48.95
2023-02-12T07:50:55.696Z,50.25
2023-02-12T07:53:15.628Z,51.97
2023-02-12T07:55:35.432Z,65.25
2023-02-12T07:57:55.022Z,66.97
2023-02-12T08:00:15.622Z,69.22
2023-02-12T08:02:35.631Z,83.07
2023-02-12T08:04:57.093Z,86.80
2023-02-12T08:07:17.561Z,79.93
2023-02-12T08:09:37.307Z,78.43
2023-02-12T08:11:57.328Z,86.88
2023-02-12T08:14:19.440Z,81.88
2023-02-12T08:16:40.993Z,71.55
2023-02-12T08:19:15.869Z,65.97
2023-02-12T08:21:37.860Z,67.75
2023-02-12T08:23:59.082Z,67.50
2023-02-12T08:26:23.303Z,59.33
2023-02-12T08:28:49.198Z,56.10
2023-02-12T08:31:13.473Z,53.33
2023-02-12T08:33:33.588Z,64.72
2023-02-12T08:36:14.797Z,50.50
2023-02-12T08:38:35.346Z,47.85
2023-02-12T08:40:55.650Z,46.05
2023-02-12T08:43:15.472Z,46.60
2023-02-12T08:45:35.642Z,41.55
2023-02-12T08:47:55.711Z,36.45
2023-02-12T08:50:15.773Z,44.17
2023-02-12T08:52:35.910Z,41.95
2023-02-12T08:54:56.131Z,34.78
2023-02-12T08:57:16.190Z,33.45
2023-02-12T08:59:35.838Z,34.83
2023-02-12T09:01:55.576Z,33.10
2023-02-12T09:04:26.922Z,29.02
2023-02-12T09:06:47.897Z,19.58
2023-02-12T09:09:07.883Z,18.88
2023-02-12T09:11:31.380Z,16.10
2023-02-12T09:13:58.228Z,16.83
2023-02-12T09:16:18.358Z,15.02
2023-02-12T09:18:42.248Z,14.18
2023-02-12T09:21:07.851Z,22.92
2023-02-12T09:23:28.090Z,18.55
2023-02-12T09:25:48.285Z,16.75
2023-02-12T09:28:09.663Z,12.30
2023-02-12T09:30:29.491Z,15.38
2023-02-12T09:32:49.668Z,18.08
2023-02-12T09:35:11.993Z,12.15
2023-02-12T09:37:32.034Z,12.48
2023-02-12T09:39:52.410Z,16.00
2023-02-12T09:42:37.049Z,15.63
2023-02-12T09:45:17.456Z,22.58
2023-02-12T09:47:58.999Z,15.80
2023-02-12T09:50:35.670Z,19.55
2023-02-12T09:52:58.431Z,18.13
2023-02-12T09:55:19.602Z,27.50
2023-02-12T09:57:39.664Z,36.78
2023-02-12T10:00:14.211Z,31.73
2023-02-12T10:02:39.313Z,25.42
2023-02-12T10:05:01.880Z,24.67
2023-02-12T10:07:43.107Z,29.90
2023-02-12T10:10:39.428Z,30.85
2023-02-12T10:13:05.048Z,30.33
2023-02-12T10:15:39.453Z,26.20
2023-02-12T10:18:21.001Z,19.85
2023-02-12T10:20:49.747Z,22.40
2023-02-12T10:23:44.882Z,21.60
2023-02-12T10:26:28.881Z,17.70
2023-02-12T10:28:50.575Z,16.08
2023-02-12T10:31:22.879Z,14.20
2023-02-12T10:33:45.569Z,12.30
2023-02-12T10:36:17.417Z,14.35
2023-02-12T10:38:42.017Z,13.77
2023-02-12T10:41:02.200Z,17.30
2023-02-12T10:43:22.045Z,17.75
2023-02-12T10:45:43.304Z,15.13
2023-02-12T10:48:08.315Z,17.65
2023-02-12T10:50:50.629Z,21.67
2023-02-12T10:53:19.693Z,15.38
2023-02-12T10:55:39.608Z,14.93
2023-02-12T10:58:01.868Z,13.30
2023-02-12T11:00:38.078Z,15.15
2023-02-12T11:03:10.844Z,15.13
2023-02-12T11:05:34.885Z,8.85
2023-02-12T11:07:57.104Z,8.75
2023-02-12T11:10:27.931Z,13.15
2023-02-12T11:12:49.201Z,7.93
2023-02-12T11:15:27.528Z,8.48
2023-02-12T11:17:59.693Z,7.55
2023-02-12T11:20:30.847Z,4.80
2023-02-12T11:23:31.109Z,5.28
2023-02-12T11:26:18.069Z,4.60
2023-02-12T11:28:37.907Z,5.28
2023-02-12T11:31:00.575Z,4.15
2023-02-12T11:33:25.280Z,4.38
2023-02-12T11:35:58.166Z,3.13
2023-02-12T11:38:28.030Z,3.67
2023-02-12T11:40:47.902Z,3.03
2023-02-12T11:43:14.290Z,3.90
2023-02-12T11:45:55.707Z,3.40
2023-02-12T11:48:18.501Z,4.32
2023-02-12T11:50:39.003Z,5.32
2023-02-12T11:53:07.471Z,3.10
2023-02-12T11:55:33.156Z,4.40
2023-02-12T11:58:19.752Z,3.50
2023-02-12T12:00:53.184Z,4.05
2023-02-12T12:03:26.665Z,3.28
2023-02-12T12:05:53.871Z,4.22
2023-02-12T12:08:49.268Z,5.28
2023-02-12T12:11:15.609Z,5.30
2023-02-12T12:13:49.508Z,5.45
2023-02-12T12:16:34.647Z,7.55
2023-02-12T12:19:20.105Z,6.65
2023-02-12T12:22:05.272Z,5.70
2023-02-12T12:24:58.488Z,6.30
2023-02-12T12:27:51.130Z,5.70
2023-02-12T12:30:33.286Z,7.05
2023-02-12T12:32:58.833Z,6.50
2023-02-12T12:35:24.204Z,6.18
2023-02-12T12:38:05.412Z,7.63
2023-02-12T12:40:55.092Z,6.40
2023-02-12T12:44:07.088Z,6.30
2023-02-12T12:46:47.324Z,6.57
2023-02-12T12:49:22.069Z,6.90
2023-02-12T12:51:56.841Z,6.82
2023-02-12T12:54:19.542Z,7.47
2023-02-12T12:56:45.782Z,5.85
2023-02-12T12:59:49.768Z,6.18
2023-02-12T13:02:15.723Z,5.97
2023-02-12T13:04:58.952Z,5.13
2023-02-12T13:07:21.659Z,5.40
2023-02-12T13:09:52.965Z,5.95
2023-02-12T13:12:34.850Z,4.90
2023-02-12T13:15:09.025Z,4.47
2023-02-12T13:17:47.343Z,4.93
2023-02-12T13:20:29.976Z,4.03
2023-02-12T13:23:02.334Z,4.07
2023-02-12T13:25:31.761Z,4.57
2023-02-12T13:27:52.634Z,3.10
2023-02-12T13:30:21.141Z,5.00
2023-02-12T13:32:44.458Z,4.80
2023-02-12T13:35:06.759Z,3.22
2023-02-12T13:37:48.196Z,3.90
2023-02-12T13:40:18.687Z,3.90
2023-02-12T13:42:53.602Z,4.15
2023-02-12T13:45:31.975Z,5.60
2023-02-12T13:48:04.669Z,5.68
2023-02-12T13:50:46.322Z,7.20
2023-02-12T13:53:24.329Z,6.32
2023-02-12T13:56:18.450Z,3.33
2023-02-12T13:58:39.114Z,4.45
2023-02-12T14:01:01.686Z,4.65
2023-02-12T14:03:35.337Z,5.43
2023-02-12T14:06:18.666Z,4.88
2023-02-12T14:08:42.061Z,4.75
2023-02-12T14:11:12.980Z,3.70
2023-02-12T14:14:02.535Z,3.88
2023-02-12T14:16:28.552Z,2.10
2023-02-12T14:18:48.306Z,1.60
2023-02-12T14:21:12.181Z,2.08
2023-02-12T14:23:34.631Z,2.70
2023-02-12T14:26:02.429Z,1.88
2023-02-12T14:28:54.244Z,1.52
2023-02-12T14:31:20.672Z,1.48
2023-02-12T14:33:40.413Z,2.13
2023-02-12T14:36:17.916Z,1.98
2023-02-12T14:38:47.488Z,1.83
2023-02-12T14:41:38.208Z,1.67
2023-02-12T14:44:16.885Z,2.17
2023-02-12T14:46:36.620Z,2.88
2023-02-12T14:49:04.336Z,2.88
2023-02-12T14:51:51.686Z,2.92
2023-02-12T14:54:49.510Z,2.78
2023-02-12T14:57:37.161Z,2.90
2023-02-12T15:00:03.565Z,3.17
2023-02-12T15:02:29.338Z,3.13
2023-02-12T15:04:51.035Z,2.28
2023-02-12T15:07:16.980Z,3.30
2023-02-12T15:09:45.951Z,3.53
2023-02-12T15:12:13.314Z,2.67
2023-02-12T15:14:41.967Z,3.33
2023-02-12T15:17:17.332Z,3.40
2023-02-12T15:20:05.374Z,3.35
2023-02-12T15:22:38.701Z,3.55
2023-02-12T15:25:28.260Z,3.65
2023-02-12T15:27:49.776Z,3.63
2023-02-12T15:30:26.059Z,3.78
2023-02-12T15:32:46.700Z,3.33
2023-02-12T15:35:17.161Z,3.05
2023-02-12T15:37:39.865Z,3.50
2023-02-12T15:40:03.034Z,3.55
2023-02-12T15:42:29.731Z,3.40
2023-02-12T15:44:49.719Z,3.85
2023-02-12T15:47:15.651Z,3.67
2023-02-12T15:49:37.363Z,3.20
2023-02-12T15:51:59.660Z,4.13
2023-02-12T15:54:20.478Z,3.58
2023-02-12T15:56:41.351Z,2.92
2023-02-12T15:59:02.043Z,3.78
2023-02-12T16:01:27.825Z,3.47
2023-02-12T16:04:07.732Z,3.50
2023-02-12T16:06:33.485Z,3.50
2023-02-12T16:09:01.375Z,3.95
2023-02-12T16:11:22.513Z,3.63
2023-02-12T16:13:54.732Z,3.92
2023-02-12T16:16:14.687Z,3.38
2023-02-12T16:18:34.990Z,4.00
2023-02-12T16:21:09.576Z,4.13
2023-02-12T16:23:30.765Z,3.35
2023-02-12T16:25:54.764Z,3.80
2023-02-12T16:28:20.160Z,5.00
2023-02-12T16:30:42.352Z,5.43
2023-02-12T16:33:02.095Z,4.55
2023-02-12T16:35:28.753Z,4.80
2023-02-12T16:37:51.797Z,5.10
2023-02-12T16:40:12.040Z,4.65
2023-02-12T16:42:32.223Z,5.72
2023-02-12T16:44:52.359Z,4.95
2023-02-12T16:47:21.356Z,7.75
2023-02-12T16:49:53.665Z,5.65
2023-02-12T16:52:37.946Z,4.95
2023-02-12T16:54:58.329Z,5.15
2023-02-12T16:57:18.028Z,5.57
2023-02-12T16:59:42.491Z,5.22
2023-02-12T17:02:10.124Z,7.35
2023-02-12T17:04:30.445Z,7.10
2023-02-12T17:06:50.071Z,9.10
2023-02-12T17:09:10.572Z,8.93
2023-02-12T17:11:30.585Z,6.95
2023-02-12T17:13:52.623Z,7.07
2023-02-12T17:16:21.614Z,13.88
2023-02-12T17:18:48.697Z,15.68
2023-02-12T17:21:31.046Z,11.65
2023-02-12T17:23:53.533Z,6.75
2023-02-12T17:26:13.626Z,7.45
2023-02-12T17:28:33.895Z,8.07
2023-02-12T17:30:53.957Z,14.18
2023-02-12T17:33:15.230Z,7.18
2023-02-12T17:35:37.867Z,7.82
2023-02-12T17:37:57.833Z,9.95
2023-02-12T17:40:18.082Z,8.95
2023-02-12T17:42:37.761Z,7.72
2023-02-12T17:44:57.850Z,5.10
2023-02-12T17:47:18.155Z,21.70
2023-02-12T17:49:39.211Z,6.72
2023-02-12T17:51:58.940Z,15.68
2023-02-12T17:54:18.985Z,13.05
2023-02-12T17:56:39.125Z,15.50
2023-02-12T17:58:59.589Z,26.05
2023-02-12T18:01:21.816Z,12.10
2023-02-12T18:03:42.240Z,11.27
2023-02-12T18:06:02.959Z,9.98
2023-02-12T18:08:22.835Z,11.40
2023-02-12T18:10:44.206Z,12.30
2023-02-12T18:13:03.992Z,9.73
2023-02-12T18:15:24.566Z,12.90
2023-02-12T18:17:44.186Z,11.60
2023-02-12T18:20:04.908Z,7.30
2023-02-12T18:22:25.330Z,7.10
2023-02-12T18:24:45.500Z,8.35
2023-02-12T18:27:05.145Z,8.55
2023-02-12T18:29:24.786Z,9.25
2023-02-12T18:31:44.952Z,8.85
2023-02-12T18:34:05.950Z,10.30
2023-02-12T18:36:25.878Z,10.57
2023-02-12T18:38:47.599Z,12.23
2023-02-12T18:41:13.898Z,7.18
2023-02-12T18:43:35.452Z,8.50
2023-02-12T18:45:55.580Z,8.32
2023-02-12T18:48:15.655Z,16.33
2023-02-12T18:50:36.461Z,10.90
2023-02-12T18:52:56.473Z,12.68
2023-02-12T18:55:16.605Z,13.75
2023-02-12T18:57:36.646Z,10.35
2023-02-12T18:59:56.637Z,16.52
2023-02-12T19:02:16.356Z,8.68
2023-02-12T19:04:36.383Z,9.30
2023-02-12T19:06:57.041Z,30.20
2023-02-12T19:09:19.600Z,34.45
2023-02-12T19:11:39.424Z,31.95
2023-02-12T19:13:59.652Z,35.67
2023-02-12T19:16:20.824Z,23.67
2023-02-12T19:18:41.309Z,25.67
2023-02-12T19:21:08.108Z,36.22
2023-02-12T19:23:28.173Z,24.45
2023-02-12T19:25:47.732Z,24.13
2023-02-12T19:28:07.925Z,43.45
2023-02-12T19:30:28.051Z,36.92
2023-02-12T19:32:48.217Z,28.30
2023-02-12T19:35:08.721Z,25.10
2023-02-12T19:37:28.665Z,20.98
2023-02-12T19:39:48.758Z,19.35
2023-02-12T19:42:11.492Z,19.38
2023-02-12T19:44:31.900Z,25.67
2023-02-12T19:46:52.665Z,28.13
2023-02-12T19:49:22.460Z,32.85
2023-02-12T19:51:42.477Z,33.08
2023-02-12T19:54:04.028Z,22.40
2023-02-12T19:56:23.697Z,26.65
2023-02-12T19:58:44.259Z,19.05
2023-02-12T20:01:12.354Z,24.83
2023-02-12T20:03:32.574Z,19.55
2023-02-12T20:06:04.585Z,16.42
2023-02-12T20:08:24.596Z,18.63
2023-02-12T20:10:45.151Z,18.38
2023-02-12T20:13:05.640Z,19.05
2023-02-12T20:15:25.793Z,15.75
2023-02-12T20:17:45.786Z,28.60
2023-02-12T20:20:06.584Z,32.67
2023-02-12T20:22:26.517Z,38.13
2023-02-12T20:24:46.528Z,37.60
2023-02-12T20:27:06.662Z,31.05
2023-02-12T20:29:27.255Z,30.52
2023-02-12T20:31:47.236Z,31.23
2023-02-12T20:34:10.593Z,25.73
2023-02-12T20:38:55.301Z,48.55
2023-02-12T20:41:15.176Z,43.00
2023-02-12T20:43:35.930Z,39.35
2023-02-12T20:48:21.512Z,32.72
2023-02-12T20:50:41.130Z,16.33
2023-02-12T20:53:01.756Z,17.70
2023-02-12T20:55:21.838Z,16.35
2023-02-12T20:57:41.515Z,18.00
2023-02-12T21:00:02.265Z,16.38
2023-02-12T21:02:22.643Z,16.15
2023-02-12T21:04:42.831Z,14.82
2023-02-12T21:07:02.935Z,20.38
2023-02-12T21:09:23.204Z,18.88
2023-02-12T21:11:45.029Z,20.83
2023-02-12T21:14:21.318Z,26.83
2023-02-12T21:16:43.738Z,28.15
2023-02-12T21:19:04.011Z,28.25
2023-02-12T21:21:30.267Z,52.15
2023-02-12T21:23:56.676Z,37.75
2023-02-12T21:26:18.837Z,31.05
2023-02-12T21:28:39.477Z,34.00
2023-02-12T21:31:18.028Z,26.83
2023-02-12T21:33:39.248Z,23.85
2023-02-12T21:36:03.543Z,20.45
2023-02-12T21:38:23.510Z,18.65
2023-02-12T21:40:43.293Z,21.85
2023-02-12T21:43:03.474Z,20.15
2023-02-12T21:45:23.673Z,16.27
2023-02-12T21:47:44.075Z,16.35
2023-02-12T21:50:04.963Z,18.27
2023-02-12T21:52:25.072Z,19.92
2023-02-12T21:54:45.001Z,19.80
2023-02-12T21:57:05.303Z,18.23
2023-02-12T21:59:25.737Z,20.92
2023-02-12T22:01:50.820Z,20.63
2023-02-12T22:04:11.194Z,18.95
2023-02-12T22:06:31.513Z,17.25
2023-02-12T22:08:54.994Z,15.13
2023-02-12T22:11:15.338Z,17.80
2023-02-12T22:13:35.767Z,16.73
2023-02-12T22:15:55.685Z,17.52
2023-02-12T22:18:15.698Z,17.05
2023-02-12T22:20:36.486Z,22.38
2023-02-12T22:22:57.247Z,22.60
2023-02-12T22:25:17.077Z,26.08
2023-02-12T22:27:36.604Z,26.60
2023-02-12T22:29:56.784Z,28.40
2023-02-12T22:32:17.024Z,36.60
2023-02-12T22:34:37.039Z,32.15
2023-02-12T22:36:56.913Z,30.48
2023-02-12T22:39:17.440Z,25.27
2023-02-12T22:41:37.313Z,19.45
2023-02-12T22:44:04.462Z,14.18
2023-02-12T22:46:24.060Z,15.63
2023-02-12T22:48:43.949Z,13.50
2023-02-12T22:51:08.905Z,12.63
2023-02-12T22:53:28.907Z,10.80
2023-02-12T22:55:48.808Z,11.52
2023-02-12T22:58:09.026Z,18.90
2023-02-12T23:00:29.112Z,11.98
2023-02-12T23:02:48.745Z,16.23
2023-02-12T23:05:08.326Z,13.80
2023-02-12T23:07:27.991Z,19.08
2023-02-12T23:09:47.830Z,11.55
2023-02-12T23:12:10.295Z,10.82
2023-02-12T23:14:30.310Z,13.13
2023-02-12T23:16:50.101Z,12.32
2023-02-12T23:19:10.886Z,9.23
2023-02-12T23:21:31.757Z,10.82
2023-02-12T23:23:52.085Z,10.57
2023-02-12T23:26:12.118Z,9.57
2023-02-12T23:28:31.925Z,11.98
2023-02-12T23:30:52.906Z,13.45
2023-02-12T23:33:12.823Z,10.48
2023-02-12T23:35:32.820Z,12.85
2023-02-12T23:37:52.627Z,11.52
2023-02-12T23:40:13.013Z,10.27
2023-02-12T23:42:33.240Z,15.23
2023-02-12T23:44:54.593Z,10.25
2023-02-12T23:47:15.247Z,16.83
2023-02-12T23:49:36.406Z,10.57
2023-02-12T23:51:56.269Z,12.15
2023-02-12T23:54:16.142Z,10.82
2023-02-12T23:56:36.166Z,10.80
2023-02-12T23:58:56.835Z,8.65
